sensor_id;sensor_type;location;lat;lon;timestamp;pressure;altitude;pressure_sealevel;temperature;humidity
52591;BME280;38483;42.620;25.394;2023-04-01T00:01:21;96254.53;;;9.21;69.15
52591;BME280;38483;42.620;25.394;2023-04-01T00:03:48;96250.16;;;9.23;69.33
52591;BME280;38483;42.620;25.394;2023-04-01T00:06:17;96249.63;;;9.32;68.66
52591;BME280;38483;42.620;25.394;2023-04-01T00:08:45;96245.50;;;9.45;67.97
52591;BME280;38483;42.620;25.394;2023-04-01T00:11:13;96237.75;;;9.45;67.50
52591;BME280;38483;42.620;25.394;2023-04-01T00:13:41;96243.06;;;9.42;67.60
52591;BME280;38483;42.620;25.394;2023-04-01T00:16:09;96230.97;;;9.43;67.73
52591;BME280;38483;42.620;25.394;2023-04-01T00:18:48;96235.56;;;9.53;67.46
52591;BME280;38483;42.620;25.394;2023-04-01T00:21:17;96224.41;;;9.37;67.52
52591;BME280;38483;42.620;25.394;2023-04-01T00:23:44;96229.38;;;9.40;66.70
52591;BME280;38483;42.620;25.394;2023-04-01T00:26:11;96238.41;;;9.33;67.37
52591;BME280;38483;42.620;25.394;2023-04-01T00:28:39;96239.91;;;9.37;66.69
52591;BME280;38483;42.620;25.394;2023-04-01T00:31:08;96237.00;;;9.43;66.74
52591;BME280;38483;42.620;25.394;2023-04-01T00:33:37;96231.41;;;9.35;66.93
52591;BME280;38483;42.620;25.394;2023-04-01T00:36:08;96235.22;;;9.28;67.45
52591;BME280;38483;42.620;25.394;2023-04-01T00:38:37;96227.56;;;9.27;67.47
52591;BME280;38483;42.620;25.394;2023-04-01T00:41:05;96217.94;;;9.13;67.78
52591;BME280;38483;42.620;25.394;2023-04-01T00:43:33;96229.22;;;9.12;68.10
52591;BME280;38483;42.620;25.394;2023-04-01T00:46:00;96224.50;;;8.87;68.96
52591;BME280;38483;42.620;25.394;2023-04-01T00:48:33;96219.69;;;8.97;68.90
52591;BME280;38483;42.620;25.394;2023-04-01T00:51:11;96213.66;;;8.96;69.28
52591;BME280;38483;42.620;25.394;2023-04-01T00:53:47;96216.00;;;9.01;69.15
52591;BME280;38483;42.620;25.394;2023-04-01T00:56:24;96212.75;;;8.82;69.64
52591;BME280;38483;42.620;25.394;2023-04-01T00:58:58;96202.56;;;8.79;70.41
52591;BME280;38483;42.620;25.394;2023-04-01T01:01:29;96201.06;;;8.75;69.42
52591;BME280;38483;42.620;25.394;2023-04-01T01:03:57;96179.06;;;8.68;69.56
52591;BME280;38483;42.620;25.394;2023-04-01T01:09:42;96195.03;;;8.91;69.27
52591;BME280;38483;42.620;25.394;2023-04-01T01:12:20;96169.34;;;8.88;69.01
52591;BME280;38483;42.620;25.394;2023-04-01T01:18:39;96185.25;;;8.48;71.33
52591;BME280;38483;42.620;25.394;2023-04-01T01:26:54;96182.13;;;8.59;71.49
52591;BME280;38483;42.620;25.394;2023-04-01T01:35:14;96165.91;;;8.22;72.76
52591;BME280;38483;42.620;25.394;2023-04-01T01:37:44;96171.53;;;8.13;72.71
52591;BME280;38483;42.620;25.394;2023-04-01T01:40:15;96176.69;;;8.13;72.55
52591;BME280;38483;42.620;25.394;2023-04-01T01:42:48;96175.84;;;7.96;73.92
52591;BME280;38483;42.620;25.394;2023-04-01T01:45:20;96177.13;;;7.87;74.04
52591;BME280;38483;42.620;25.394;2023-04-01T01:47:49;96178.63;;;7.91;73.39
52591;BME280;38483;42.620;25.394;2023-04-01T01:50:17;96174.81;;;7.83;74.86
52591;BME280;38483;42.620;25.394;2023-04-01T01:52:45;96182.06;;;7.75;74.50
52591;BME280;38483;42.620;25.394;2023-04-01T01:55:34;96158.63;;;7.62;75.44
52591;BME280;38483;42.620;25.394;2023-04-01T01:58:28;96171.69;;;7.76;75.38
52591;BME280;38483;42.620;25.394;2023-04-01T02:00:59;96165.84;;;7.73;76.11
52591;BME280;38483;42.620;25.394;2023-04-01T02:03:31;96166.44;;;7.78;75.88
52591;BME280;38483;42.620;25.394;2023-04-01T02:06:00;96150.97;;;7.78;75.37
52591;BME280;38483;42.620;25.394;2023-04-01T02:08:42;96140.53;;;7.81;75.68
52591;BME280;38483;42.620;25.394;2023-04-01T02:11:13;96145.22;;;7.90;75.25
52591;BME280;38483;42.620;25.394;2023-04-01T02:13:54;96152.88;;;8.08;74.02
52591;BME280;38483;42.620;25.394;2023-04-01T02:19:16;96132.47;;;8.38;73.56
52591;BME280;38483;42.620;25.394;2023-04-01T02:21:56;96134.97;;;8.40;72.68
52591;BME280;38483;42.620;25.394;2023-04-01T02:24:28;96128.72;;;8.44;72.51
52591;BME280;38483;42.620;25.394;2023-04-01T02:26:57;96119.47;;;8.40;72.96
52591;BME280;38483;42.620;25.394;2023-04-01T02:29:24;96124.41;;;8.44;73.01
52591;BME280;38483;42.620;25.394;2023-04-01T02:31:53;96121.78;;;8.61;71.64
52591;BME280;38483;42.620;25.394;2023-04-01T02:34:22;96121.69;;;8.63;71.15
52591;BME280;38483;42.620;25.394;2023-04-01T02:36:50;96126.88;;;8.63;70.96
52591;BME280;38483;42.620;25.394;2023-04-01T02:39:18;96123.75;;;8.41;71.94
52591;BME280;38483;42.620;25.394;2023-04-01T02:41:46;96130.25;;;8.48;72.35
52591;BME280;38483;42.620;25.394;2023-04-01T02:44:14;96131.84;;;8.50;72.07
52591;BME280;38483;42.620;25.394;2023-04-01T02:46:42;96130.66;;;8.56;71.92
52591;BME280;38483;42.620;25.394;2023-04-01T02:49:10;96116.69;;;8.60;71.38
52591;BME280;38483;42.620;25.394;2023-04-01T02:51:37;96129.78;;;8.72;70.90
52591;BME280;38483;42.620;25.394;2023-04-01T02:54:05;96136.81;;;8.53;70.74
52591;BME280;38483;42.620;25.394;2023-04-01T02:56:32;96142.63;;;8.41;71.20
52591;BME280;38483;42.620;25.394;2023-04-01T02:58:59;96144.53;;;8.38;71.40
52591;BME280;38483;42.620;25.394;2023-04-01T03:01:26;96129.81;;;8.40;71.61
52591;BME280;38483;42.620;25.394;2023-04-01T03:03:53;96127.47;;;8.35;70.50
52591;BME280;38483;42.620;25.394;2023-04-01T03:06:20;96129.69;;;8.26;70.80
52591;BME280;38483;42.620;25.394;2023-04-01T03:08:47;96105.50;;;7.94;71.56
52591;BME280;38483;42.620;25.394;2023-04-01T03:11:14;96133.25;;;7.89;71.94
52591;BME280;38483;42.620;25.394;2023-04-01T03:13:41;96144.38;;;7.89;72.68
52591;BME280;38483;42.620;25.394;2023-04-01T03:16:09;96136.81;;;8.03;72.23
52591;BME280;38483;42.620;25.394;2023-04-01T03:18:37;96121.69;;;8.13;70.76
52591;BME280;38483;42.620;25.394;2023-04-01T03:21:21;96121.78;;;8.29;71.11
52591;BME280;38483;42.620;25.394;2023-04-01T03:23:49;96118.72;;;8.20;70.51
52591;BME280;38483;42.620;25.394;2023-04-01T03:26:17;96119.53;;;8.05;71.02
52591;BME280;38483;42.620;25.394;2023-04-01T03:28:44;96103.22;;;8.05;70.71
52591;BME280;38483;42.620;25.394;2023-04-01T03:31:11;96125.03;;;8.15;71.27
52591;BME280;38483;42.620;25.394;2023-04-01T03:33:45;96121.94;;;8.26;71.50
52591;BME280;38483;42.620;25.394;2023-04-01T03:36:12;96103.25;;;8.20;71.22
52591;BME280;38483;42.620;25.394;2023-04-01T03:38:40;96100.09;;;8.15;70.71
52591;BME280;38483;42.620;25.394;2023-04-01T03:41:12;96107.00;;;8.15;71.25
52591;BME280;38483;42.620;25.394;2023-04-01T03:43:40;96122.16;;;8.04;71.38
52591;BME280;38483;42.620;25.394;2023-04-01T03:46:07;96099.94;;;7.50;73.40
52591;BME280;38483;42.620;25.394;2023-04-01T03:48:34;96108.34;;;7.36;74.19
52591;BME280;38483;42.620;25.394;2023-04-01T03:51:06;96090.59;;;7.13;75.72
52591;BME280;38483;42.620;25.394;2023-04-01T03:53:33;96103.25;;;7.18;76.17
52591;BME280;38483;42.620;25.394;2023-04-01T03:56:07;96100.75;;;7.16;75.38
52591;BME280;38483;42.620;25.394;2023-04-01T03:58:36;96090.72;;;7.29;75.67
52591;BME280;38483;42.620;25.394;2023-04-01T04:01:14;96101.25;;;7.59;74.90
52591;BME280;38483;42.620;25.394;2023-04-01T04:03:41;96080.28;;;7.66;75.00
52591;BME280;38483;42.620;25.394;2023-04-01T04:06:11;96088.06;;;7.82;73.68
52591;BME280;38483;42.620;25.394;2023-04-01T04:08:38;96083.63;;;7.68;74.10
52591;BME280;38483;42.620;25.394;2023-04-01T04:11:05;96073.97;;;7.55;74.67
52591;BME280;38483;42.620;25.394;2023-04-01T04:13:36;96090.59;;;7.66;75.41
52591;BME280;38483;42.620;25.394;2023-04-01T04:16:04;96098.91;;;7.88;73.90
52591;BME280;38483;42.620;25.394;2023-04-01T04:18:32;96097.97;;;8.06;73.86
52591;BME280;38483;42.620;25.394;2023-04-01T04:20:59;96093.00;;;8.03;72.97
52591;BME280;38483;42.620;25.394;2023-04-01T04:23:30;96098.72;;;8.26;73.60
52591;BME280;38483;42.620;25.394;2023-04-01T04:26:06;96095.66;;;8.35;72.94
52591;BME280;38483;42.620;25.394;2023-04-01T04:28:34;96101.44;;;8.40;72.68
52591;BME280;38483;42.620;25.394;2023-04-01T04:31:02;96088.63;;;8.38;71.96
52591;BME280;38483;42.620;25.394;2023-04-01T04:33:29;96093.69;;;8.40;71.83
52591;BME280;38483;42.620;25.394;2023-04-01T04:35:57;96103.41;;;8.35;72.54
52591;BME280;38483;42.620;25.394;2023-04-01T04:38:25;96096.50;;;8.35;72.85
52591;BME280;38483;42.620;25.394;2023-04-01T04:40:53;96099.34;;;8.13;73.34
52591;BME280;38483;42.620;25.394;2023-04-01T04:43:20;96093.88;;;7.85;74.28
52591;BME280;38483;42.620;25.394;2023-04-01T04:45:48;96092.63;;;7.77;75.64
52591;BME280;38483;42.620;25.394;2023-04-01T04:48:15;96077.34;;;7.89;74.19
52591;BME280;38483;42.620;25.394;2023-04-01T04:50:47;96080.91;;;8.04;75.13
52591;BME280;38483;42.620;25.394;2023-04-01T04:53:17;96081.69;;;7.89;75.46
52591;BME280;38483;42.620;25.394;2023-04-01T04:55:47;96078.50;;;7.84;75.49
52591;BME280;38483;42.620;25.394;2023-04-01T04:58:33;96065.56;;;7.68;76.47
52591;BME280;38483;42.620;25.394;2023-04-01T05:01:12;96058.72;;;7.84;76.48
52591;BME280;38483;42.620;25.394;2023-04-01T05:03:40;96065.53;;;8.02;75.09
52591;BME280;38483;42.620;25.394;2023-04-01T05:06:08;96061.31;;;8.17;75.09
52591;BME280;38483;42.620;25.394;2023-04-01T05:08:36;96059.06;;;8.11;74.60
52591;BME280;38483;42.620;25.394;2023-04-01T05:11:03;96059.63;;;8.00;75.52
52591;BME280;38483;42.620;25.394;2023-04-01T05:13:32;96054.00;;;8.09;76.23
52591;BME280;38483;42.620;25.394;2023-04-01T05:15:59;96042.53;;;8.15;74.92
52591;BME280;38483;42.620;25.394;2023-04-01T05:18:26;96045.44;;;8.24;75.85
52591;BME280;38483;42.620;25.394;2023-04-01T05:20:54;96039.38;;;8.43;75.20
52591;BME280;38483;42.620;25.394;2023-04-01T05:23:22;96044.94;;;8.66;73.86
52591;BME280;38483;42.620;25.394;2023-04-01T05:25:49;96053.44;;;8.68;73.54
52591;BME280;38483;42.620;25.394;2023-04-01T05:28:18;96034.44;;;8.54;74.14
52591;BME280;38483;42.620;25.394;2023-04-01T05:30:46;96041.78;;;8.77;73.81
52591;BME280;38483;42.620;25.394;2023-04-01T05:33:21;96044.78;;;8.85;73.98
52591;BME280;38483;42.620;25.394;2023-04-01T05:35:48;96031.59;;;8.74;74.08
52591;BME280;38483;42.620;25.394;2023-04-01T05:38:15;96041.75;;;8.92;73.35
52591;BME280;38483;42.620;25.394;2023-04-01T05:40:42;96046.59;;;9.14;72.89
52591;BME280;38483;42.620;25.394;2023-04-01T05:43:10;96039.06;;;9.25;72.30
52591;BME280;38483;42.620;25.394;2023-04-01T05:45:37;96043.34;;;9.40;71.98
52591;BME280;38483;42.620;25.394;2023-04-01T05:48:13;96030.63;;;9.37;71.33
52591;BME280;38483;42.620;25.394;2023-04-01T05:50:40;96030.06;;;9.46;71.16
52591;BME280;38483;42.620;25.394;2023-04-01T05:53:09;96038.16;;;9.56;71.76
52591;BME280;38483;42.620;25.394;2023-04-01T05:55:39;96044.47;;;9.50;71.57
52591;BME280;38483;42.620;25.394;2023-04-01T05:58:06;96044.88;;;9.58;71.64
52591;BME280;38483;42.620;25.394;2023-04-01T06:00:35;96047.69;;;9.69;71.09
52591;BME280;38483;42.620;25.394;2023-04-01T06:03:02;96049.06;;;9.75;70.54
52591;BME280;38483;42.620;25.394;2023-04-01T06:05:42;96047.09;;;9.64;70.46
52591;BME280;38483;42.620;25.394;2023-04-01T06:08:16;96028.38;;;9.31;71.97
52591;BME280;38483;42.620;25.394;2023-04-01T06:22:20;96022.75;;;9.09;74.36
52591;BME280;38483;42.620;25.394;2023-04-01T06:43:59;96000.25;;;9.99;71.92
52591;BME280;38483;42.620;25.394;2023-04-01T06:46:58;95962.56;;;10.09;71.09
52591;BME280;38483;42.620;25.394;2023-04-01T06:55:43;95969.13;;;10.14;69.96
52591;BME280;38483;42.620;25.394;2023-04-01T07:01:53;95965.06;;;10.38;69.83
52591;BME280;38483;42.620;25.394;2023-04-01T07:04:39;95932.53;;;10.20;70.23
52591;BME280;38483;42.620;25.394;2023-04-01T07:10:31;95987.06;;;10.31;70.30
52591;BME280;38483;42.620;25.394;2023-04-01T07:13:23;95982.88;;;10.43;70.10
52591;BME280;38483;42.620;25.394;2023-04-01T07:22:01;95945.19;;;10.65;68.51
52591;BME280;38483;42.620;25.394;2023-04-01T07:24:53;95982.94;;;10.96;68.52
52591;BME280;38483;42.620;25.394;2023-04-01T07:27:20;95957.63;;;11.26;67.32
52591;BME280;38483;42.620;25.394;2023-04-01T07:29:47;95956.94;;;10.98;68.41
52591;BME280;38483;42.620;25.394;2023-04-01T07:32:25;95968.84;;;11.39;67.73
52591;BME280;38483;42.620;25.394;2023-04-01T07:35:02;95971.81;;;11.85;66.99
52591;BME280;38483;42.620;25.394;2023-04-01T07:55:12;95945.47;;;12.76;62.02
52591;BME280;38483;42.620;25.394;2023-04-01T07:57:56;95959.00;;;12.92;62.41
52591;BME280;38483;42.620;25.394;2023-04-01T08:00:41;95960.72;;;12.81;62.30
52591;BME280;38483;42.620;25.394;2023-04-01T08:03:35;95947.88;;;12.90;62.32
52591;BME280;38483;42.620;25.394;2023-04-01T08:06:43;95968.47;;;13.17;61.50
52591;BME280;38483;42.620;25.394;2023-04-01T08:12:24;95944.09;;;13.07;62.26
52591;BME280;38483;42.620;25.394;2023-04-01T08:20:33;95942.84;;;13.47;61.70
52591;BME280;38483;42.620;25.394;2023-04-01T08:23:10;95915.81;;;13.26;61.98
52591;BME280;38483;42.620;25.394;2023-04-01T08:25:46;95903.72;;;13.60;61.66
52591;BME280;38483;42.620;25.394;2023-04-01T08:28:22;95915.47;;;13.31;62.68
52591;BME280;38483;42.620;25.394;2023-04-01T08:33:29;95918.16;;;13.64;62.50
52591;BME280;38483;42.620;25.394;2023-04-01T08:36:05;95902.50;;;13.42;62.52
52591;BME280;38483;42.620;25.394;2023-04-01T08:47:24;95880.53;;;13.79;62.32
52591;BME280;38483;42.620;25.394;2023-04-01T08:50:31;95875.81;;;13.95;61.60
52591;BME280;38483;42.620;25.394;2023-04-01T09:08:32;95846.03;;;14.53;60.14
52591;BME280;38483;42.620;25.394;2023-04-01T09:20:44;95836.75;;;14.06;62.53
52591;BME280;38483;42.620;25.394;2023-04-01T09:29:05;95819.25;;;14.08;62.22
52591;BME280;38483;42.620;25.394;2023-04-01T09:40:48;95781.56;;;14.34;61.53
52591;BME280;38483;42.620;25.394;2023-04-01T09:46:26;95783.84;;;14.80;60.27
52591;BME280;38483;42.620;25.394;2023-04-01T10:02:32;95779.66;;;15.09;59.60
52591;BME280;38483;42.620;25.394;2023-04-01T10:08:33;95763.31;;;15.28;58.45
52591;BME280;38483;42.620;25.394;2023-04-01T10:14:22;95733.34;;;15.92;57.11
52591;BME280;38483;42.620;25.394;2023-04-01T10:29:00;95721.44;;;16.38;55.42
52591;BME280;38483;42.620;25.394;2023-04-01T10:43:33;95702.75;;;16.71;54.28
52591;BME280;38483;42.620;25.394;2023-04-01T10:46:35;95691.72;;;16.39;55.12
52591;BME280;38483;42.620;25.394;2023-04-01T10:49:43;95678.53;;;16.69;55.42
52591;BME280;38483;42.620;25.394;2023-04-01T11:11:03;95623.44;;;17.17;58.76
52591;BME280;38483;42.620;25.394;2023-04-01T11:33:19;95557.41;;;17.32;59.74
52591;BME280;38483;42.620;25.394;2023-04-01T11:35:51;95539.16;;;17.40;58.47
52591;BME280;38483;42.620;25.394;2023-04-01T11:39:24;95523.97;;;17.53;58.91
52591;BME280;38483;42.620;25.394;2023-04-01T11:42:01;95522.06;;;17.81;57.69
52591;BME280;38483;42.620;25.394;2023-04-01T11:48:35;95517.59;;;17.73;58.32
52591;BME280;38483;42.620;25.394;2023-04-01T11:53:54;95540.69;;;17.60;58.57
52591;BME280;38483;42.620;25.394;2023-04-01T12:14:08;95514.53;;;18.47;57.45
52591;BME280;38483;42.620;25.394;2023-04-01T12:19:56;95505.75;;;18.05;58.33
52591;BME280;38483;42.620;25.394;2023-04-01T12:25:18;95494.75;;;18.27;57.22
52591;BME280;38483;42.620;25.394;2023-04-01T12:28:15;95493.28;;;18.50;54.80
52591;BME280;38483;42.620;25.394;2023-04-01T12:36:35;95461.88;;;18.66;54.04
52591;BME280;38483;42.620;25.394;2023-04-01T12:41:46;95470.00;;;18.55;54.53
52591;BME280;38483;42.620;25.394;2023-04-01T12:47:51;95465.47;;;18.65;54.58
52591;BME280;38483;42.620;25.394;2023-04-01T12:55:45;95455.13;;;19.05;54.84
52591;BME280;38483;42.620;25.394;2023-04-01T12:58:21;95446.59;;;19.03;54.50
52591;BME280;38483;42.620;25.394;2023-04-01T13:01:27;95397.56;;;18.96;54.60
52591;BME280;38483;42.620;25.394;2023-04-01T13:29:02;95376.88;;;18.85;55.69
52591;BME280;38483;42.620;25.394;2023-04-01T13:42:53;95357.63;;;18.60;55.01
52591;BME280;38483;42.620;25.394;2023-04-01T13:45:38;95349.09;;;18.58;54.22
52591;BME280;38483;42.620;25.394;2023-04-01T13:48:32;95326.47;;;18.65;53.15
52591;BME280;38483;42.620;25.394;2023-04-01T14:09:40;95296.56;;;18.92;52.72
52591;BME280;38483;42.620;25.394;2023-04-01T14:12:48;95292.28;;;18.91;52.74
52591;BME280;38483;42.620;25.394;2023-04-01T14:21:10;95313.88;;;18.60;53.82
52591;BME280;38483;42.620;25.394;2023-04-01T14:23:55;95310.06;;;18.47;54.23
52591;BME280;38483;42.620;25.394;2023-04-01T14:43:01;95460.59;;;13.91;81.29
52591;BME280;38483;42.620;25.394;2023-04-01T14:48:50;95493.56;;;13.29;81.39
52591;BME280;38483;42.620;25.394;2023-04-01T14:51:31;95519.06;;;13.35;80.13
52591;BME280;38483;42.620;25.394;2023-04-01T14:54:29;95510.94;;;13.60;80.62
52591;BME280;38483;42.620;25.394;2023-04-01T15:00:12;95533.59;;;13.89;79.53
52591;BME280;38483;42.620;25.394;2023-04-01T15:09:14;95517.28;;;13.87;82.77
52591;BME280;38483;42.620;25.394;2023-04-01T15:14:37;95495.28;;;14.42;82.47
52591;BME280;38483;42.620;25.394;2023-04-01T15:23:16;95450.59;;;15.06;76.33
52591;BME280;38483;42.620;25.394;2023-04-01T15:28:35;95464.63;;;15.43;76.12
52591;BME280;38483;42.620;25.394;2023-04-01T15:42:48;95482.28;;;15.97;76.43
52591;BME280;38483;42.620;25.394;2023-04-01T15:54:06;95481.63;;;15.18;69.23
52591;BME280;38483;42.620;25.394;2023-04-01T15:59:54;95490.53;;;15.25;68.78
52591;BME280;38483;42.620;25.394;2023-04-01T16:02:34;95483.97;;;15.31;68.49
52591;BME280;38483;42.620;25.394;2023-04-01T16:07:57;95488.59;;;15.27;69.77
52591;BME280;38483;42.620;25.394;2023-04-01T16:10:38;95476.13;;;15.31;70.52
52591;BME280;38483;42.620;25.394;2023-04-01T16:16:09;95491.63;;;15.13;70.54
52591;BME280;38483;42.620;25.394;2023-04-01T16:21:45;95513.56;;;15.11;72.27
52591;BME280;38483;42.620;25.394;2023-04-01T16:26:57;95511.34;;;14.97;72.67
52591;BME280;38483;42.620;25.394;2023-04-01T16:29:53;95514.06;;;14.86;73.99
52591;BME280;38483;42.620;25.394;2023-04-01T16:32:27;95528.34;;;14.82;74.70
52591;BME280;38483;42.620;25.394;2023-04-01T16:37:54;95528.94;;;14.64;76.27
52591;BME280;38483;42.620;25.394;2023-04-01T16:40:49;95538.78;;;14.31;79.18
52591;BME280;38483;42.620;25.394;2023-04-01T16:43:25;95539.63;;;14.31;78.73
52591;BME280;38483;42.620;25.394;2023-04-01T16:46:08;95549.00;;;14.02;78.30
52591;BME280;38483;42.620;25.394;2023-04-01T16:49:13;95570.53;;;14.04;78.90
52591;BME280;38483;42.620;25.394;2023-04-01T16:51:53;95575.56;;;13.96;78.10
52591;BME280;38483;42.620;25.394;2023-04-01T16:54:31;95580.19;;;13.93;77.99
52591;BME280;38483;42.620;25.394;2023-04-01T16:57:12;95568.78;;;13.73;79.47
52591;BME280;38483;42.620;25.394;2023-04-01T17:00:15;95568.09;;;13.71;78.77
52591;BME280;38483;42.620;25.394;2023-04-01T17:06:22;95574.41;;;13.89;79.13
52591;BME280;38483;42.620;25.394;2023-04-01T17:14:07;95616.63;;;13.61;81.16
52591;BME280;38483;42.620;25.394;2023-04-01T17:30:34;95619.56;;;13.25;79.13
52591;BME280;38483;42.620;25.394;2023-04-01T17:36:16;95599.00;;;13.22;77.45
52591;BME280;38483;42.620;25.394;2023-04-01T17:39:00;95623.53;;;13.40;76.23
52591;BME280;38483;42.620;25.394;2023-04-01T17:53:03;95646.75;;;13.10;77.70
52591;BME280;38483;42.620;25.394;2023-04-01T17:55:59;95653.25;;;13.04;77.52
52591;BME280;38483;42.620;25.394;2023-04-01T18:12:27;95682.16;;;13.44;78.84
52591;BME280;38483;42.620;25.394;2023-04-01T18:17:57;95659.13;;;12.73;80.64
52591;BME280;38483;42.620;25.394;2023-04-01T18:23:35;95671.25;;;12.50;81.66
52591;BME280;38483;42.620;25.394;2023-04-01T18:26:10;95668.66;;;12.50;83.43
52591;BME280;38483;42.620;25.394;2023-04-01T18:28:53;95679.06;;;12.72;82.56
52591;BME280;38483;42.620;25.394;2023-04-01T18:31:24;95703.88;;;12.76;81.74
52591;BME280;38483;42.620;25.394;2023-04-01T18:36:43;95747.72;;;13.03;81.25
52591;BME280;38483;42.620;25.394;2023-04-01T18:39:21;95758.00;;;13.04;80.65
52591;BME280;38483;42.620;25.394;2023-04-01T18:44:51;95747.59;;;12.93;78.81
52591;BME280;38483;42.620;25.394;2023-04-01T18:52:36;95744.50;;;12.43;77.48
52591;BME280;38483;42.620;25.394;2023-04-01T18:57:46;95716.09;;;12.52;76.80
52591;BME280;38483;42.620;25.394;2023-04-01T19:00:21;95770.22;;;12.69;75.94
52591;BME280;38483;42.620;25.394;2023-04-01T19:03:02;95777.09;;;12.92;78.19
52591;BME280;38483;42.620;25.394;2023-04-01T19:05:36;95758.22;;;13.01;78.76
52591;BME280;38483;42.620;25.394;2023-04-01T19:08:30;95748.59;;;13.15;78.87
52591;BME280;38483;42.620;25.394;2023-04-01T19:21:45;95700.22;;;12.79;80.07
52591;BME280;38483;42.620;25.394;2023-04-01T19:32:38;95688.28;;;12.87;81.94
52591;BME280;38483;42.620;25.394;2023-04-01T19:37:44;95700.56;;;12.96;81.62
52591;BME280;38483;42.620;25.394;2023-04-01T19:40:35;95706.34;;;12.89;81.13
52591;BME280;38483;42.620;25.394;2023-04-01T19:46:02;95710.59;;;12.79;81.82
52591;BME280;38483;42.620;25.394;2023-04-01T20:02:44;95755.06;;;12.52;83.14
52591;BME280;38483;42.620;25.394;2023-04-01T20:44:59;95801.53;;;12.44;75.67
52591;BME280;38483;42.620;25.394;2023-04-01T20:50:50;95772.84;;;12.22;75.69
52591;BME280;38483;42.620;25.394;2023-04-01T21:10:07;95820.59;;;12.32;72.33
52591;BME280;38483;42.620;25.394;2023-04-01T21:18:11;95817.81;;;11.99;71.67
52591;BME280;38483;42.620;25.394;2023-04-01T21:20:59;95821.97;;;11.89;71.53
52591;BME280;38483;42.620;25.394;2023-04-01T21:32:41;95847.72;;;11.67;71.64
52591;BME280;38483;42.620;25.394;2023-04-01T21:34:57;95853.44;;;11.72;71.28
52591;BME280;38483;42.620;25.394;2023-04-01T21:37:44;95850.84;;;11.59;71.55
52591;BME280;38483;42.620;25.394;2023-04-01T21:45:58;95840.69;;;11.43;71.55
52591;BME280;38483;42.620;25.394;2023-04-01T22:12:07;95891.00;;;10.89;72.99
52591;BME280;38483;42.620;25.394;2023-04-01T22:17:19;95881.22;;;10.80;72.14
52591;BME280;38483;42.620;25.394;2023-04-01T22:41:36;95882.81;;;10.56;70.47
52591;BME280;38483;42.620;25.394;2023-04-01T22:44:19;95891.16;;;10.47;70.98
52591;BME280;38483;42.620;25.394;2023-04-01T22:47:12;95890.16;;;10.49;71.16
52591;BME280;38483;42.620;25.394;2023-04-01T22:49:51;95899.13;;;10.44;70.57
52591;BME280;38483;42.620;25.394;2023-04-01T22:52:31;95875.69;;;10.33;70.93
52591;BME280;38483;42.620;25.394;2023-04-01T22:55:04;95876.06;;;10.27;71.36
52591;BME280;38483;42.620;25.394;2023-04-01T22:57:40;95901.19;;;10.39;71.03
52591;BME280;38483;42.620;25.394;2023-04-01T23:00:32;95894.84;;;10.30;70.98
52591;BME280;38483;42.620;25.394;2023-04-01T23:03:04;95906.28;;;10.40;71.02
52591;BME280;38483;42.620;25.394;2023-04-01T23:05:37;95897.13;;;10.35;70.71
52591;BME280;38483;42.620;25.394;2023-04-01T23:08:59;95881.34;;;10.25;70.71
52591;BME280;38483;42.620;25.394;2023-04-01T23:11:53;95903.16;;;10.21;70.64
52591;BME280;38483;42.620;25.394;2023-04-01T23:25:03;95910.38;;;10.16;70.20
52591;BME280;38483;42.620;25.394;2023-04-01T23:27:36;95925.13;;;10.28;70.29
52591;BME280;38483;42.620;25.394;2023-04-01T23:35:50;95928.03;;;10.24;70.35
52591;BME280;38483;42.620;25.394;2023-04-01T23:38:19;95909.00;;;10.11;70.63
52591;BME280;38483;42.620;25.394;2023-04-01T23:40:49;95931.75;;;10.20;70.32
52591;BME280;38483;42.620;25.394;2023-04-01T23:43:40;95926.75;;;10.17;70.00
52591;BME280;38483;42.620;25.394;2023-04-01T23:46:11;95921.78;;;10.14;70.23
52591;BME280;38483;42.620;25.394;2023-04-01T23:48:43;95914.91;;;10.13;70.54
52591;BME280;38483;42.620;25.394;2023-04-01T23:51:26;95923.97;;;9.92;70.63
52591;BME280;38483;42.620;25.394;2023-04-01T23:54:15;95920.47;;;9.93;70.59
52591;BME280;38483;42.620;25.394;2023-04-01T23:56:46;95913.63;;;9.92;69.89
52591;BME280;38483;42.620;25.394;2023-04-01T23:59:23;95927.94;;;9.83;70.03
